aviador You're here:

KMLP Decoded Metar

MULLAN PASS in ID, USA
Report Time2017-05-26 12:53:00
UTC Time2017-05-26 13:07:55
Flight Rules vfr VFR
Wind120° at 05 kt
W.Rank120° ranks 10
Current wind is below 120° avg. (6.5)
Visibility9999 m
Phenomena:N/A
Clouds:Broken 085 Hf
Expected CloudBase > 2,000 ft AGL from Temp-Dew spread
Ceiling8,500 ft
Temp05°C (ISA +2)
Dew Point00°C (70% RH)
AAT1.2°C
QNH1014 hPa
Density Alt6,325 ft
Elevation6,027 ft
Report Wrong Elevation
Raw Report
KMLP 261253Z AUTO 12005KT 10SM BKN085 05/00 A2995 RMK AO2 SLP089
T00500000 TSNO=

Extra information for KMLP:More info

Metar Taf Metar & Taf Last 4 Metars F.Rules Stats Wind Profile Meteogram Temp Stats Airport Information Weather charts Add Link Nearby VenuesMetar ALERT Operation Metar Decoded Social comments

AIRNAV info for KMLP